Time;durP1;ratioP1;P1;durP2;ratioP2;P2;SDS_P1;SDS_P2;PMS_P1;PMS_P2;Temp;Humidity;BMP_temperature;BMP_pressure;BME280_temperature;BME280_humidity;BME280_pressure;Samples;Min_cycle;Max_cycle;Signal;HPM_P1;HPM_P2
2023/04/11 00:00:33;;;;;;;4.78;3.42;;;11.30;99.90;;;;;;5033641;28;20214;-84
2023/04/11 00:03:01;;;;;;;4.00;3.33;;;11.20;99.90;;;;;;5016405;28;20770;-85
2023/04/11 00:05:30;;;;;;;4.20;3.45;;;11.10;99.90;;;;;;5016348;28;20610;-84
2023/04/11 00:07:56;;;;;;;5.15;3.30;;;11.10;99.90;;;;;;5034100;28;20170;-84
2023/04/11 00:10:22;;;;;;;4.45;3.40;;;11.00;99.90;;;;;;5033991;28;20228;-84
2023/04/11 00:12:47;;;;;;;5.90;3.20;;;11.00;99.90;;;;;;5033737;28;20210;-84
2023/04/11 00:15:15;;;;;;;4.78;3.58;;;11.00;99.90;;;;;;5032787;28;20516;-85
2023/04/11 00:17:44;;;;;;;3.17;2.70;;;10.90;99.90;;;;;;5033892;28;20170;-84
2023/04/11 00:20:11;;;;;;;5.82;3.38;;;10.90;99.90;;;;;;5033823;28;20174;-87
2023/04/11 00:22:37;;;;;;;3.75;2.97;;;10.80;99.90;;;;;;5016227;28;20182;-86
2023/04/11 00:25:04;;;;;;;5.53;2.70;;;10.80;99.90;;;;;;5032281;28;20522;-86
2023/04/11 00:27:30;;;;;;;5.80;2.72;;;10.80;99.90;;;;;;5033823;28;20178;-84
2023/04/11 00:29:56;;;;;;;3.30;2.65;;;10.70;99.90;;;;;;5033592;28;20685;-85
2023/04/11 00:32:23;;;;;;;6.68;2.70;;;10.70;99.90;;;;;;5015460;28;20637;-86
2023/04/11 00:34:49;;;;;;;2.95;2.30;;;10.70;99.90;;;;;;5033612;28;20510;-87
2023/04/11 00:37:16;;;;;;;3.50;2.72;;;10.70;99.90;;;;;;5033825;28;20182;-85
2023/04/11 00:39:44;;;;;;;5.60;2.70;;;10.70;99.90;;;;;;5032431;28;20193;-86
2023/04/11 00:42:10;;;;;;;4.18;2.88;;;10.60;99.90;;;;;;5033678;28;20197;-84
2023/04/11 00:44:36;;;;;;;4.38;3.10;;;10.70;99.90;;;;;;5032179;28;20186;-87
2023/04/11 00:47:05;;;;;;;5.03;2.95;;;10.60;99.90;;;;;;5033686;28;20517;-84
2023/04/11 00:49:32;;;;;;;3.78;2.80;;;10.60;99.90;;;;;;5033574;28;20190;-87
2023/04/11 00:51:59;;;;;;;7.20;3.50;;;10.60;99.90;;;;;;5505136;22;20340;-85
2023/04/11 00:54:29;;;;;;;3.20;2.78;;;10.60;99.90;;;;;;5034819;28;20189;-85
2023/04/11 00:57:03;;;;;;;5.00;3.35;;;10.50;99.90;;;;;;5053545;28;20257;-86
2023/04/11 00:59:31;;;;;;;3.83;3.05;;;10.50;99.90;;;;;;5053881;28;20165;-86
2023/04/11 01:01:58;;;;;;;5.05;3.30;;;10.40;99.90;;;;;;5053929;28;20174;-88
2023/04/11 01:04:28;;;;;;;5.10;3.35;;;10.40;99.90;;;;;;5052976;28;20184;-86
2023/04/11 01:07:02;;;;;;;4.13;3.17;;;10.30;99.90;;;;;;5052946;28;20604;-86
2023/04/11 01:09:29;;;;;;;8.48;3.40;;;10.20;99.90;;;;;;5054039;28;20165;-88
2023/04/11 01:11:57;;;;;;;4.47;3.03;;;10.20;99.90;;;;;;5054253;28;20194;-87
2023/04/11 01:14:26;;;;;;;5.20;3.17;;;10.10;99.90;;;;;;5014157;28;20190;-86
2023/04/11 01:16:52;;;;;;;5.50;3.85;;;10.10;99.90;;;;;;5014153;28;20238;-86
2023/04/11 01:19:19;;;;;;;4.60;3.40;;;10.10;99.90;;;;;;5015189;28;20258;-84
2023/04/11 01:21:47;;;;;;;6.97;3.95;;;10.10;99.90;;;;;;5017279;28;20262;-82
2023/04/11 01:24:14;;;;;;;5.37;3.90;;;10.10;99.90;;;;;;4999808;28;20225;-85
2023/04/11 01:26:40;;;;;;;5.55;4.13;;;10.10;99.90;;;;;;5036264;28;20182;-86
2023/04/11 01:29:06;;;;;;;6.05;3.55;;;10.20;99.90;;;;;;5037433;28;20174;-86
2023/04/11 01:31:32;;;;;;;5.75;3.72;;;10.20;99.90;;;;;;5037393;28;20181;-85
2023/04/11 01:34:00;;;;;;;4.85;3.67;;;10.20;99.90;;;;;;5037303;28;20218;-85
2023/04/11 01:36:27;;;;;;;5.35;3.42;;;10.20;99.90;;;;;;5037266;28;20167;-84
2023/04/11 01:38:53;;;;;;;6.07;3.83;;;10.20;99.90;;;;;;5037292;28;20182;-86
2023/04/11 01:41:20;;;;;;;5.18;3.88;;;10.20;99.90;;;;;;5036672;28;20171;-84
2023/04/11 01:43:47;;;;;;;5.70;3.65;;;10.20;99.90;;;;;;5019387;28;20175;-85
2023/04/11 01:46:14;;;;;;;4.60;3.40;;;10.10;99.90;;;;;;5037083;28;20346;-84
2023/04/11 01:48:40;;;;;;;5.00;3.30;;;10.10;99.90;;;;;;5036892;28;20956;-85
2023/04/11 01:51:06;;;;;;;7.53;3.55;;;10.10;99.90;;;;;;5036813;28;20179;-84
2023/04/11 01:53:32;;;;;;;4.70;3.13;;;10.10;99.90;;;;;;5036555;28;20683;-82
2023/04/11 01:55:58;;;;;;;4.88;3.20;;;10.10;99.90;;;;;;5036594;28;20181;-83
2023/04/11 01:58:24;;;;;;;3.90;2.78;;;10.20;99.90;;;;;;5035721;28;20187;-86
2023/04/11 02:00:50;;;;;;;4.25;3.20;;;10.10;99.90;;;;;;5019197;28;20951;-85
2023/04/11 02:03:17;;;;;;;3.63;3.13;;;10.10;99.90;;;;;;5018869;28;20213;-82
2023/04/11 02:05:44;;;;;;;4.40;2.75;;;10.10;99.90;;;;;;5036653;28;20166;-84
2023/04/11 02:08:10;;;;;;;4.40;2.80;;;10.10;99.90;;;;;;5036650;28;20189;-84
2023/04/11 02:10:36;;;;;;;3.95;2.63;;;10.10;99.90;;;;;;5035975;28;20601;-86
2023/04/11 02:13:02;;;;;;;4.32;2.97;;;10.10;99.90;;;;;;5031238;28;20217;-86
2023/04/11 02:15:27;;;;;;;3.83;2.83;;;10.00;99.90;;;;;;5036479;28;20253;-85
2023/04/11 02:17:53;;;;;;;4.10;2.80;;;10.00;99.90;;;;;;5036234;28;20185;-84
2023/04/11 02:20:22;;;;;;;4.80;2.60;;;10.00;99.90;;;;;;5036165;28;20262;-84
2023/04/11 02:22:48;;;;;;;2.60;2.27;;;10.00;99.90;;;;;;5036285;28;20601;-85
2023/04/11 02:25:14;;;;;;;3.77;2.50;;;9.90;99.90;;;;;;5034876;28;20236;-86
2023/04/11 02:27:40;;;;;;;2.83;2.20;;;9.90;99.90;;;;;;5035058;28;20209;-84
2023/04/11 02:30:06;;;;;;;3.33;2.27;;;9.90;99.90;;;;;;5017719;28;20624;-85
2023/04/11 02:32:33;;;;;;;3.03;2.30;;;9.90;99.90;;;;;;5017884;28;20593;-84
2023/04/11 02:35:01;;;;;;;3.45;2.30;;;9.90;99.90;;;;;;5018393;28;20174;-85
2023/04/11 02:37:27;;;;;;;3.70;2.07;;;9.90;99.90;;;;;;5036231;28;20253;-85
2023/04/11 02:39:54;;;;;;;4.73;2.30;;;9.80;99.90;;;;;;5035749;28;20272;-85
2023/04/11 02:42:20;;;;;;;2.43;1.90;;;9.90;99.90;;;;;;5035973;28;20207;-85
2023/04/11 02:44:45;;;;;;;4.47;1.90;;;9.80;99.90;;;;;;5036129;28;20221;-84
2023/04/11 02:47:11;;;;;;;2.53;1.90;;;9.80;99.90;;;;;;5035760;28;20260;-84
2023/04/11 02:49:39;;;;;;;2.10;1.90;;;9.80;99.90;;;;;;5034368;28;20182;-84
2023/04/11 02:52:05;;;;;;;5.00;2.10;;;9.80;99.90;;;;;;5035282;28;20226;-84
2023/04/11 02:54:31;;;;;;;2.93;2.00;;;9.80;99.90;;;;;;5035297;28;20193;-83
2023/04/11 02:56:57;;;;;;;2.67;1.80;;;9.80;99.90;;;;;;5035791;28;20175;-85
2023/04/11 02:59:22;;;;;;;3.05;2.20;;;9.70;99.90;;;;;;5035570;28;20617;-83
2023/04/11 03:01:48;;;;;;;3.33;2.33;;;9.70;99.90;;;;;;5035260;28;20170;-83
2023/04/11 03:04:14;;;;;;;2.58;2.20;;;9.70;99.90;;;;;;5035551;28;20171;-84
2023/04/11 03:06:40;;;;;;;3.22;2.08;;;9.70;99.90;;;;;;5034217;28;20181;-83
2023/04/11 03:09:05;;;;;;;2.95;2.30;;;9.70;99.90;;;;;;5035413;28;20178;-84
2023/04/11 03:11:31;;;;;;;4.70;2.38;;;9.70;99.90;;;;;;5033689;28;20178;-84
2023/04/11 03:13:59;;;;;;;3.83;1.83;;;9.70;99.90;;;;;;5017417;28;20222;-82
2023/04/11 03:16:26;;;;;;;3.73;2.10;;;9.70;99.90;;;;;;5035172;28;20163;-83
2023/04/11 03:18:52;;;;;;;2.30;1.87;;;9.70;99.90;;;;;;5017488;28;20174;-84
2023/04/11 03:21:18;;;;;;;2.60;2.10;;;9.70;99.90;;;;;;5034997;28;20193;-84
2023/04/11 03:23:43;;;;;;;3.17;1.87;;;9.60;99.90;;;;;;5034947;28;20667;-84
2023/04/11 03:26:11;;;;;;;2.78;1.85;;;9.60;99.90;;;;;;5034886;28;20800;-84
2023/04/11 03:28:37;;;;;;;2.67;2.05;;;9.60;99.90;;;;;;5034067;28;20517;-83
2023/04/11 03:31:03;;;;;;;2.73;1.60;;;9.60;99.90;;;;;;5034819;28;20178;-84
2023/04/11 03:33:29;;;;;;;2.43;1.80;;;9.50;99.90;;;;;;5016948;28;20214;-84
2023/04/11 03:35:54;;;;;;;3.63;2.00;;;9.50;99.90;;;;;;5034831;28;20171;-84
2023/04/11 03:38:20;;;;;;;3.17;1.80;;;9.40;99.90;;;;;;5017287;28;20675;-85
2023/04/11 03:40:45;;;;;;;2.53;1.50;;;9.40;99.90;;;;;;5034619;28;20212;-83
2023/04/11 03:43:11;;;;;;;1.70;1.50;;;9.30;99.90;;;;;;5033132;28;20261;-84
2023/04/11 03:45:37;;;;;;;1.97;1.50;;;9.40;99.90;;;;;;5034765;28;20175;-84
2023/04/11 03:48:03;;;;;;;3.63;1.60;;;9.30;99.90;;;;;;5034630;28;20217;-83
2023/04/11 03:50:28;;;;;;;1.73;1.60;;;9.30;99.90;;;;;;5034331;28;20553;-84
2023/04/11 03:52:54;;;;;;;3.43;1.43;;;9.30;99.90;;;;;;5034256;28;20329;-83
2023/04/11 03:55:20;;;;;;;3.17;1.30;;;9.30;99.90;;;;;;5016569;28;20186;-84
2023/04/11 03:57:46;;;;;;;4.17;1.40;;;9.20;99.90;;;;;;5033409;28;20610;-84
2023/04/11 04:00:12;;;;;;;1.63;1.20;;;9.20;99.90;;;;;;5034340;28;20641;-85
2023/04/11 04:02:37;;;;;;;2.90;1.30;;;9.20;99.90;;;;;;5016676;28;20186;-85
2023/04/11 04:05:03;;;;;;;5.33;1.30;;;9.20;99.90;;;;;;5033192;28;20208;-84
2023/04/11 04:07:29;;;;;;;1.67;1.10;;;9.20;99.90;;;;;;5034663;28;20589;-85
2023/04/11 04:09:54;;;;;;;5.37;1.40;;;9.20;99.90;;;;;;5034403;28;20183;-85
2023/04/11 04:12:20;;;;;;;1.87;0.93;;;9.20;99.90;;;;;;5034396;28;20205;-87
2023/04/11 04:14:47;;;;;;;2.67;1.10;;;9.20;99.90;;;;;;5034227;28;20178;-88
2023/04/11 04:17:15;;;;;;;3.00;1.17;;;9.20;99.90;;;;;;5017200;28;20270;-85
2023/04/11 04:19:41;;;;;;;3.33;1.27;;;9.20;99.90;;;;;;5034266;28;20212;-87
2023/04/11 04:22:16;;;;;;;6.33;1.17;;;9.20;99.90;;;;;;5034191;28;20179;-84
2023/04/11 04:24:45;;;;;;;1.40;1.00;;;9.30;99.90;;;;;;5033899;28;20181;-86
2023/04/11 04:27:12;;;;;;;3.33;1.40;;;9.30;99.90;;;;;;5016637;28;20182;-84
2023/04/11 04:29:45;;;;;;;3.87;1.30;;;9.20;99.90;;;;;;5034459;28;20282;-87
2023/04/11 04:32:19;;;;;;;2.40;1.47;;;9.20;99.90;;;;;;5016225;28;20285;-84
2023/04/11 04:34:49;;;;;;;3.90;1.17;;;9.20;99.90;;;;;;5016260;28;20189;-84
2023/04/11 04:37:21;;;;;;;4.03;1.17;;;9.30;99.90;;;;;;5034173;28;20208;-85
2023/04/11 04:39:55;;;;;;;1.97;0.90;;;9.30;99.90;;;;;;5016470;28;20225;-84
2023/04/11 04:42:24;;;;;;;1.73;0.80;;;9.20;99.90;;;;;;5029531;28;20566;-86
2023/04/11 04:44:51;;;;;;;2.10;0.80;;;9.10;99.90;;;;;;5033610;28;20206;-84
2023/04/11 04:47:18;;;;;;;2.00;0.70;;;9.00;99.90;;;;;;5014875;28;20278;-85
2023/04/11 04:49:44;;;;;;;3.53;1.13;;;8.90;99.90;;;;;;4996434;28;20210;-87
2023/04/11 04:52:13;;;;;;;2.80;1.13;;;8.80;99.90;;;;;;4996262;28;20318;-84
2023/04/11 04:54:39;;;;;;;1.93;0.77;;;8.70;99.90;;;;;;5024469;28;20201;-84
2023/04/11 04:57:05;;;;;;;2.67;0.93;;;8.60;99.90;;;;;;5019799;28;20982;-83
2023/04/11 04:59:31;;;;;;;4.77;1.13;;;8.60;99.90;;;;;;5037710;28;20273;-83
2023/04/11 05:01:57;;;;;;;6.60;1.20;;;8.50;99.90;;;;;;5036229;28;20269;-83
2023/04/11 05:04:23;;;;;;;3.00;1.10;;;8.50;99.90;;;;;;5037604;28;20196;-83
2023/04/11 05:06:49;;;;;;;4.77;1.00;;;8.40;99.90;;;;;;5037512;28;20522;-83
2023/04/11 05:09:15;;;;;;;2.70;0.97;;;8.40;99.90;;;;;;5036267;28;20174;-82
2023/04/11 05:11:40;;;;;;;3.73;1.00;;;8.30;99.90;;;;;;5037265;28;20189;-83
2023/04/11 05:14:06;;;;;;;3.07;1.17;;;8.30;99.90;;;;;;5037567;28;20649;-84
2023/04/11 05:16:36;;;;;;;3.60;1.10;;;8.30;99.90;;;;;;5019734;28;20179;-85
2023/04/11 05:19:02;;;;;;;7.13;1.80;;;8.30;99.90;;;;;;5019641;28;20175;-84
2023/04/11 05:21:28;;;;;;;4.80;1.30;;;8.30;99.90;;;;;;5037162;28;20644;-84
2023/04/11 05:23:53;;;;;;;6.33;1.47;;;8.30;99.90;;;;;;5019281;28;20274;-83
2023/04/11 05:26:19;;;;;;;6.93;1.67;;;8.30;99.90;;;;;;5019167;28;20643;-83
2023/04/11 05:28:45;;;;;;;6.83;1.30;;;8.20;99.90;;;;;;5037328;28;20171;-85
2023/04/11 05:31:10;;;;;;;8.37;1.43;;;8.20;99.90;;;;;;5037206;28;20190;-85
2023/04/11 05:33:37;;;;;;;7.23;1.60;;;8.20;99.90;;;;;;5035932;28;20649;-84
2023/04/11 05:36:03;;;;;;;5.37;1.40;;;8.20;99.90;;;;;;5019631;28;20273;-83
2023/04/11 05:38:32;;;;;;;6.13;1.63;;;8.10;99.90;;;;;;5019684;28;20182;-85
2023/04/11 05:40:58;;;;;;;7.23;1.63;;;8.10;99.90;;;;;;5036566;28;20179;-85
2023/04/11 05:43:24;;;;;;;9.37;1.70;;;8.10;99.90;;;;;;5035884;28;20210;-83
2023/04/11 05:45:50;;;;;;;8.77;1.80;;;8.10;99.90;;;;;;5037115;28;20280;-82
2023/04/11 05:48:18;;;;;;;3.80;1.50;;;8.00;99.90;;;;;;5036890;28;20167;-84
2023/04/11 05:50:45;;;;;;;4.80;1.40;;;8.00;99.90;;;;;;5036763;28;20186;-85
2023/04/11 05:53:11;;;;;;;4.43;1.37;;;8.00;99.90;;;;;;5018716;28;20253;-83
2023/04/11 05:55:37;;;;;;;7.27;1.30;;;8.00;99.90;;;;;;5018798;28;20183;-84
2023/04/11 05:58:03;;;;;;;3.50;1.10;;;8.00;99.90;;;;;;5036793;28;20177;-83
2023/04/11 06:00:31;;;;;;;5.23;1.40;;;8.00;99.90;;;;;;5018824;28;20178;-83
2023/04/11 06:02:57;;;;;;;7.03;1.40;;;8.10;99.90;;;;;;5036348;28;20181;-82
2023/04/11 06:05:24;;;;;;;4.47;1.27;;;8.10;99.90;;;;;;5035600;28;20170;-84
2023/04/11 06:07:50;;;;;;;7.60;1.73;;;8.10;99.90;;;;;;5036445;28;20175;-83
2023/04/11 06:10:16;;;;;;;4.20;1.03;;;8.20;99.90;;;;;;5036223;28;20174;-81
2023/04/11 06:12:42;;;;;;;6.93;1.53;;;8.20;99.90;;;;;;5036319;28;20202;-82
2023/04/11 06:15:10;;;;;;;4.53;1.13;;;8.20;99.90;;;;;;5036488;28;20182;-83
2023/04/11 06:17:37;;;;;;;3.97;1.20;;;8.20;99.90;;;;;;5015043;28;20192;-85
2023/04/11 06:20:04;;;;;;;5.13;1.30;;;8.30;99.90;;;;;;5016563;28;20172;-83
2023/04/11 06:22:30;;;;;;;8.67;1.70;;;8.20;99.90;;;;;;5016343;28;20181;-84
2023/04/11 06:24:56;;;;;;;9.87;1.43;;;8.20;99.90;;;;;;5032973;28;20216;-84
2023/04/11 06:27:22;;;;;;;6.03;1.37;;;8.30;99.90;;;;;;5036260;28;20179;-85
2023/04/11 06:29:47;;;;;;;3.90;1.50;;;8.30;99.90;;;;;;5036233;28;20556;-85
2023/04/11 06:32:13;;;;;;;4.23;1.33;;;8.30;99.90;;;;;;5036150;28;20234;-85
2023/04/11 06:34:39;;;;;;;7.23;1.97;;;8.30;99.90;;;;;;5036456;28;20183;-85
2023/04/11 06:37:08;;;;;;;9.33;2.00;;;8.30;99.90;;;;;;5036094;28;20217;-85
2023/04/11 06:39:34;;;;;;;7.83;2.07;;;8.30;99.90;;;;;;5034676;28;20190;-84
2023/04/11 06:42:01;;;;;;;6.07;1.60;;;8.20;99.90;;;;;;5018205;28;20621;-85
2023/04/11 06:44:27;;;;;;;3.80;1.60;;;8.20;99.90;;;;;;5036045;28;20273;-85
2023/04/11 06:46:55;;;;;;;5.30;2.23;;;8.20;99.90;;;;;;5036101;28;20179;-87
2023/04/11 06:49:21;;;;;;;7.73;2.10;;;8.30;99.90;;;;;;5018388;28;20178;-89
2023/04/11 06:51:50;;;;;;;9.40;1.90;;;8.30;99.90;;;;;;5018007;28;20190;-90
2023/04/11 06:54:17;;;;;;;6.27;1.40;;;8.10;99.90;;;;;;5018636;28;20198;-84
2023/04/11 06:56:56;;;;;;;5.37;1.20;;;8.00;99.90;;;;;;5036494;28;20182;-88
2023/04/11 06:59:22;;;;;;;6.83;1.23;;;7.90;99.90;;;;;;5034791;28;20197;-87
2023/04/11 07:01:48;;;;;;;5.73;1.30;;;8.00;99.90;;;;;;5018227;28;20178;-84
2023/04/11 07:04:15;;;;;;;3.03;1.23;;;8.00;99.90;;;;;;5034465;28;20175;-83
2023/04/11 07:06:41;;;;;;;4.43;1.27;;;8.10;99.90;;;;;;5035959;28;20614;-84
2023/04/11 07:09:13;;;;;;;4.43;1.10;;;8.10;99.90;;;;;;5034699;28;20175;-85
2023/04/11 07:11:39;;;;;;;10.57;1.67;;;8.10;99.90;;;;;;5018752;28;20537;-88
2023/04/11 07:14:05;;;;;;;4.60;1.30;;;8.10;99.90;;;;;;5035817;28;20214;-87
2023/04/11 07:16:31;;;;;;;2.63;1.20;;;8.10;99.90;;;;;;5017722;28;20270;-87
2023/04/11 07:18:58;;;;;;;4.10;1.20;;;8.20;99.90;;;;;;5018368;28;20191;-87
2023/04/11 07:21:23;;;;;;;5.73;1.30;;;8.10;99.90;;;;;;5035624;28;20325;-88
2023/04/11 07:23:49;;;;;;;6.70;1.50;;;8.10;99.90;;;;;;5035135;28;20269;-88
2023/04/11 07:26:15;;;;;;;4.07;1.50;;;8.20;99.90;;;;;;5017942;28;20185;-87
2023/04/11 07:28:43;;;;;;;3.77;1.40;;;8.30;99.90;;;;;;5035584;28;20170;-89
2023/04/11 07:31:12;;;;;;;7.03;1.60;;;8.30;99.90;;;;;;5017730;28;20185;-87
2023/04/11 07:33:38;;;;;;;5.20;1.57;;;8.30;99.90;;;;;;5035006;28;20222;-86
2023/04/11 07:36:05;;;;;;;4.90;1.57;;;8.40;99.90;;;;;;5035043;28;20178;-85
2023/04/11 07:38:33;;;;;;;4.67;1.90;;;8.50;99.90;;;;;;5034799;28;20179;-86
2023/04/11 07:41:00;;;;;;;2.87;1.40;;;8.50;99.90;;;;;;5035050;28;20158;-84
2023/04/11 07:43:27;;;;;;;4.70;1.60;;;8.50;99.90;;;;;;5017452;28;20614;-85
2023/04/11 07:45:53;;;;;;;4.03;1.80;;;8.50;99.90;;;;;;5035077;28;20225;-84
2023/04/11 07:48:24;;;;;;;7.67;1.80;;;8.50;99.90;;;;;;5034879;28;20166;-84
2023/04/11 07:50:50;;;;;;;3.17;1.50;;;8.40;99.90;;;;;;5017082;28;20553;-84
2023/04/11 07:53:16;;;;;;;4.27;1.50;;;8.40;99.90;;;;;;5034749;28;20226;-86
2023/04/11 07:55:42;;;;;;;6.63;1.60;;;8.40;99.90;;;;;;5034709;28;20250;-85
2023/04/11 07:58:08;;;;;;;5.10;1.60;;;8.40;99.90;;;;;;5035004;28;20179;-89
2023/04/11 08:00:34;;;;;;;4.93;1.20;;;8.30;99.90;;;;;;5034993;28;20174;-89
2023/04/11 08:03:10;;;;;;;2.30;0.93;;;8.20;99.90;;;;;;5017205;28;20836;-84
2023/04/11 08:05:36;;;;;;;1.93;0.80;;;8.10;99.90;;;;;;5017339;28;20174;-87
2023/04/11 08:08:05;;;;;;;4.00;1.20;;;8.00;99.90;;;;;;5034883;28;20519;-86
2023/04/11 08:10:32;;;;;;;2.60;0.90;;;8.00;99.90;;;;;;5034136;28;20167;-85
2023/04/11 08:12:58;;;;;;;1.23;0.67;;;8.00;99.90;;;;;;5016707;28;20213;-87
2023/04/11 08:15:24;;;;;;;3.27;1.03;;;8.00;99.90;;;;;;5034657;28;20257;-86
2023/04/11 08:17:54;;;;;;;3.43;1.00;;;8.00;99.90;;;;;;5034639;28;20171;-87
2023/04/11 08:20:21;;;;;;;2.63;1.10;;;8.00;99.90;;;;;;5016762;28;20174;-89
2023/04/11 08:22:47;;;;;;;3.53;0.97;;;8.00;99.90;;;;;;5016678;28;20228;-87
2023/04/11 08:25:14;;;;;;;2.50;1.10;;;8.00;99.90;;;;;;5033657;28;20186;-85
2023/04/11 08:27:40;;;;;;;4.70;1.00;;;8.10;99.90;;;;;;5016062;28;20218;-86
2023/04/11 08:30:07;;;;;;;3.10;1.00;;;8.10;99.90;;;;;;5016381;28;20189;-84
2023/04/11 08:32:34;;;;;;;5.03;1.30;;;8.20;99.90;;;;;;5016099;28;20206;-87
2023/04/11 08:35:00;;;;;;;2.90;1.20;;;8.20;99.90;;;;;;5034170;28;20344;-84
2023/04/11 08:37:27;;;;;;;5.10;1.30;;;8.20;99.90;;;;;;5034213;28;20265;-85
2023/04/11 08:39:52;;;;;;;4.17;1.30;;;8.30;99.90;;;;;;5016054;28;20171;-83
2023/04/11 08:42:26;;;;;;;3.43;1.23;;;8.30;99.90;;;;;;5016338;28;20190;-85
2023/04/11 08:44:57;;;;;;;3.73;1.10;;;8.40;99.90;;;;;;5016492;28;20178;-85
2023/04/11 08:47:23;;;;;;;1.43;0.97;;;8.50;99.90;;;;;;5033961;28;20178;-84
2023/04/11 08:49:50;;;;;;;4.43;1.30;;;8.70;99.90;;;;;;5016239;28;20187;-86
2023/04/11 08:52:18;;;;;;;3.17;1.67;;;8.70;99.90;;;;;;5007831;28;20326;-87
2023/04/11 08:54:44;;;;;;;4.10;1.40;;;8.90;99.90;;;;;;4993108;28;20279;-86
2023/04/11 08:57:19;;;;;;;1.87;1.17;;;9.00;99.90;;;;;;4994573;28;20168;-89
2023/04/11 08:59:50;;;;;;;4.53;1.60;;;9.10;99.90;;;;;;5009755;28;20628;-84
2023/04/11 09:02:15;;;;;;;3.57;1.30;;;9.20;99.90;;;;;;4993145;28;20198;-84
2023/04/11 09:04:42;;;;;;;6.60;1.70;;;9.20;99.90;;;;;;4993290;28;20180;-88
2023/04/11 09:07:08;;;;;;;3.97;1.30;;;9.30;99.90;;;;;;4994429;28;20184;-83
2023/04/11 09:09:35;;;;;;;4.13;1.67;;;9.30;99.90;;;;;;4994117;28;20198;-87
2023/04/11 09:12:02;;;;;;;3.27;1.60;;;9.50;99.90;;;;;;4992685;28;20176;-85
2023/04/11 09:14:30;;;;;;;9.00;1.70;;;9.60;99.90;;;;;;5009619;28;20211;-87
2023/04/11 09:17:00;;;;;;;5.50;1.57;;;9.50;99.90;;;;;;5009423;28;20183;-84
2023/04/11 09:19:30;;;;;;;7.50;2.10;;;9.50;99.90;;;;;;5009256;28;20517;-84
2023/04/11 09:22:01;;;;;;;5.27;2.10;;;9.50;99.90;;;;;;5008981;28;20172;-85
2023/04/11 09:24:28;;;;;;;4.57;2.03;;;9.50;99.90;;;;;;5009304;28;20195;-83
2023/04/11 09:27:18;;;;;;;6.80;2.07;;;9.50;99.90;;;;;;5009186;28;20271;-84
2023/04/11 09:29:48;;;;;;;7.10;2.20;;;9.50;99.90;;;;;;4994066;28;20263;-84
2023/04/11 09:32:28;;;;;;;3.80;2.10;;;9.70;99.90;;;;;;4992879;28;20168;-86
2023/04/11 09:35:21;;;;;;;3.93;2.03;;;9.90;99.90;;;;;;5009245;28;20266;-84
2023/04/11 09:37:54;;;;;;;4.50;2.23;;;10.10;99.90;;;;;;5009242;28;20176;-87
2023/04/11 09:40:25;;;;;;;6.07;2.17;;;10.20;99.90;;;;;;4995196;28;20629;-86
2023/04/11 09:43:00;;;;;;;6.67;1.87;;;10.20;99.90;;;;;;5012823;28;20242;-85
2023/04/11 09:45:27;;;;;;;7.50;2.00;;;10.10;99.90;;;;;;5013091;28;20178;-84
2023/04/11 09:47:57;;;;;;;8.00;1.80;;;10.00;99.90;;;;;;5012643;28;20187;-85
2023/04/11 09:50:25;;;;;;;6.80;2.23;;;9.90;99.90;;;;;;4997397;28;20175;-84
2023/04/11 09:52:55;;;;;;;5.93;2.00;;;9.70;99.90;;;;;;4995852;28;20271;-88
2023/04/11 09:55:22;;;;;;;5.57;1.90;;;9.70;99.90;;;;;;4996076;28;20175;-84
2023/04/11 09:57:50;;;;;;;4.10;1.63;;;9.70;99.90;;;;;;4997506;28;20202;-84
2023/04/11 10:00:35;;;;;;;3.27;1.70;;;9.60;99.90;;;;;;4996044;28;20299;-83
2023/04/11 10:03:01;;;;;;;3.43;1.57;;;9.70;99.90;;;;;;4997322;28;20163;-84
2023/04/11 10:05:29;;;;;;;3.13;1.60;;;10.10;99.90;;;;;;4996189;28;20180;-85
2023/04/11 10:08:15;;;;;;;3.27;1.33;;;10.20;99.90;;;;;;4995966;28;20183;-83
2023/04/11 10:10:42;;;;;;;3.87;1.00;;;10.00;99.90;;;;;;4997218;28;20553;-84
2023/04/11 10:13:41;;;;;;;2.80;1.20;;;10.00;99.90;;;;;;4995581;28;20212;-85
2023/04/11 10:16:12;;;;;;;3.20;1.10;;;10.10;99.90;;;;;;4995571;28;20207;-84
2023/04/11 10:18:59;;;;;;;2.63;0.90;;;10.20;99.90;;;;;;4995894;28;20168;-84
2023/04/11 10:21:33;;;;;;;2.13;1.10;;;10.10;99.90;;;;;;4995341;28;20218;-84
2023/04/11 10:24:12;;;;;;;1.57;1.07;;;10.00;99.90;;;;;;4996036;28;20198;-85
2023/04/11 10:26:53;;;;;;;2.57;1.20;;;9.80;99.90;;;;;;4995671;28;20580;-83
2023/04/11 10:32:16;;;;;;;5.00;1.50;;;9.90;99.90;;;;;;4996806;28;20226;-84
2023/04/11 10:34:54;;;;;;;3.83;1.60;;;10.30;99.90;;;;;;4996571;28;20262;-83
2023/04/11 10:37:29;;;;;;;6.23;0.97;;;10.30;99.90;;;;;;4997328;28;20180;-84
2023/04/11 10:40:00;;;;;;;2.37;0.67;;;9.70;99.90;;;;;;4996431;28;20182;-82
2023/04/11 10:42:34;;;;;;;1.43;0.80;;;9.30;99.90;;;;;;4996481;28;20243;-84
2023/04/11 10:45:25;;;;;;;2.97;0.80;;;8.90;99.90;;;;;;4996358;28;20164;-82
2023/04/11 10:48:06;;;;;;;2.87;0.83;;;8.60;99.90;;;;;;4996409;28;20179;-83
2023/04/11 10:50:38;;;;;;;3.43;1.00;;;8.50;99.90;;;;;;4996166;28;20164;-83
2023/04/11 10:53:05;;;;;;;4.30;0.90;;;8.40;99.90;;;;;;4993620;28;20235;-82
2023/04/11 10:55:49;;;;;;;2.40;0.80;;;8.40;99.90;;;;;;4995990;28;20188;-83
2023/04/11 10:58:20;;;;;;;2.57;1.00;;;8.50;99.90;;;;;;4996275;28;20176;-83
2023/04/11 11:00:46;;;;;;;1.60;0.97;;;8.90;99.90;;;;;;4994852;28;20267;-84
2023/04/11 11:03:17;;;;;;;5.73;1.30;;;9.30;99.90;;;;;;5011100;28;20521;-84
2023/04/11 11:05:43;;;;;;;4.97;1.43;;;9.70;99.90;;;;;;4996000;28;20191;-83
2023/04/11 11:08:09;;;;;;;1.20;1.00;;;10.00;99.90;;;;;;4996001;28;20176;-85
2023/04/11 11:10:49;;;;;;;2.07;1.00;;;10.30;99.90;;;;;;4994043;28;20199;-84
2023/04/11 11:13:15;;;;;;;5.10;1.50;;;10.40;99.90;;;;;;4994546;28;20218;-83
2023/04/11 11:15:49;;;;;;;1.57;1.10;;;10.70;99.90;;;;;;4995815;28;20179;-82
2023/04/11 11:18:17;;;;;;;3.78;1.30;;;11.00;99.90;;;;;;4994845;28;20214;-84
2023/04/11 11:20:43;;;;;;;4.78;1.50;;;11.30;99.90;;;;;;4994378;28;20222;-83
2023/04/11 11:23:10;;;;;;;8.10;1.48;;;11.50;99.90;;;;;;4995615;28;20223;-83
2023/04/11 11:25:37;;;;;;;6.50;1.42;;;11.60;99.90;;;;;;4993807;28;20180;-84
2023/04/11 11:28:07;;;;;;;3.65;1.52;;;11.40;99.90;;;;;;4994513;28;20532;-83
2023/04/11 11:30:35;;;;;;;2.63;0.90;;;11.30;99.90;;;;;;4994281;28;20180;-84
2023/04/11 11:33:18;;;;;;;7.95;1.42;;;11.30;99.90;;;;;;4995379;28;20223;-83
2023/04/11 11:35:55;;;;;;;2.92;1.10;;;11.40;99.90;;;;;;4994363;28;20492;-86
2023/04/11 11:38:24;;;;;;;2.50;1.30;;;11.30;99.90;;;;;;4994427;28;20206;-84
2023/04/11 11:40:51;;;;;;;5.18;1.40;;;11.20;99.90;;;;;;4994977;28;20176;-86
2023/04/11 11:43:17;;;;;;;2.65;1.05;;;11.30;99.90;;;;;;4994206;28;20173;-82
2023/04/11 11:45:43;;;;;;;4.53;1.50;;;11.40;99.90;;;;;;4995314;28;20179;-83
2023/04/11 11:48:24;;;;;;;3.50;1.13;;;11.60;99.90;;;;;;4994000;28;20186;-87
2023/04/11 11:50:56;;;;;;;6.35;1.23;;;11.70;99.90;;;;;;4995146;28;20175;-83
2023/04/11 11:53:23;;;;;;;5.45;1.30;;;11.90;99.90;;;;;;5022367;28;20236;-86
2023/04/11 11:55:49;;;;;;;3.22;1.60;;;12.20;99.90;;;;;;5034048;28;20253;-89
2023/04/11 11:58:17;;;;;;;6.28;1.50;;;12.60;99.90;;;;;;5034379;28;20205;-83
2023/04/11 12:00:47;;;;;;;2.65;1.25;;;12.70;99.90;;;;;;5016434;28;20181;-85
2023/04/11 12:03:17;;;;;;;3.85;1.10;;;12.50;99.90;;;;;;5033999;28;20167;-83
2023/04/11 12:05:43;;;;;;;4.15;1.30;;;12.10;99.90;;;;;;5016503;28;20232;-84
2023/04/11 12:08:09;;;;;;;6.15;1.50;;;11.80;99.90;;;;;;5034471;28;20171;-84
2023/04/11 12:10:45;;;;;;;2.60;0.98;;;11.50;99.90;;;;;;5016501;28;20182;-82
2023/04/11 12:13:22;;;;;;;3.25;1.08;;;10.90;99.90;;;;;;5032922;28;20283;-83
2023/04/11 12:15:55;;;;;;;1.58;1.00;;;10.70;99.90;;;;;;5016306;28;20328;-84
2023/04/11 12:18:23;;;;;;;2.60;1.00;;;10.70;99.90;;;;;;5032781;28;20182;-83
2023/04/11 12:20:49;;;;;;;4.57;1.05;;;10.80;99.90;;;;;;5033668;28;20175;-84
2023/04/11 12:23:16;;;;;;;3.08;1.38;;;10.90;99.90;;;;;;5032659;28;20620;-83
2023/04/11 12:25:41;;;;;;;5.45;1.00;;;11.20;99.90;;;;;;5015507;28;20174;-84
2023/04/11 12:28:08;;;;;;;2.53;1.17;;;11.70;99.90;;;;;;5016141;28;20189;-84
2023/04/11 12:30:34;;;;;;;4.80;1.20;;;12.30;99.90;;;;;;5033653;28;20643;-82
2023/04/11 12:33:00;;;;;;;6.82;1.10;;;12.80;99.90;;;;;;5033844;28;20211;-84
2023/04/11 12:35:26;;;;;;;4.32;1.20;;;13.10;99.90;;;;;;5016468;28;20182;-83
2023/04/11 12:37:51;;;;;;;3.05;1.00;;;13.20;99.90;;;;;;5033822;28;20174;-84
2023/04/11 12:40:17;;;;;;;4.25;1.10;;;13.10;99.90;;;;;;5033504;28;20249;-85
2023/04/11 12:42:45;;;;;;;2.30;0.98;;;13.20;98.60;;;;;;5016571;28;20521;-85
2023/04/11 12:45:12;;;;;;;6.63;0.85;;;13.00;99.40;;;;;;5016020;28;20190;-83
2023/04/11 12:47:38;;;;;;;4.93;1.00;;;12.70;99.90;;;;;;5033801;28;20178;-84
2023/04/11 12:50:05;;;;;;;2.75;1.05;;;12.50;99.90;;;;;;5015786;28;20225;-84
2023/04/11 12:52:32;;;;;;;4.70;1.20;;;12.30;99.90;;;;;;5015428;28;20226;-83
2023/04/11 12:54:58;;;;;;;4.05;1.20;;;12.30;99.90;;;;;;5015566;28;20240;-84
2023/04/11 12:57:24;;;;;;;4.15;1.00;;;12.10;99.90;;;;;;5033693;28;20166;-84
2023/04/11 12:59:50;;;;;;;5.30;1.25;;;11.90;99.90;;;;;;5033736;28;20182;-84